sensor_id;sensor_type;location;lat;lon;timestamp;P1;durP1;ratioP1;P2;durP2;ratioP2
70780;SDS011;59514;48.810;2.134;2023-06-10T00:01:38;2.75;;;2.55;;
70780;SDS011;59514;48.810;2.134;2023-06-10T00:04:03;2.70;;;2.50;;
70780;SDS011;59514;48.810;2.134;2023-06-10T00:06:29;2.90;;;2.70;;
70780;SDS011;59514;48.810;2.134;2023-06-10T00:09:00;2.75;;;2.55;;
70780;SDS011;59514;48.810;2.134;2023-06-10T00:11:26;2.58;;;2.38;;
70780;SDS011;59514;48.810;2.134;2023-06-10T00:13:51;2.30;;;2.20;;
70780;SDS011;59514;48.810;2.134;2023-06-10T00:16:16;3.20;;;2.90;;
70780;SDS011;59514;48.810;2.134;2023-06-10T00:18:42;3.00;;;2.80;;
70780;SDS011;59514;48.810;2.134;2023-06-10T00:21:09;3.80;;;2.70;;
70780;SDS011;59514;48.810;2.134;2023-06-10T00:23:34;2.70;;;2.50;;
70780;SDS011;59514;48.810;2.134;2023-06-10T00:26:03;3.30;;;2.80;;
70780;SDS011;59514;48.810;2.134;2023-06-10T00:28:29;3.35;;;2.70;;
70780;SDS011;59514;48.810;2.134;2023-06-10T00:30:54;2.65;;;2.45;;
70780;SDS011;59514;48.810;2.134;2023-06-10T00:33:20;2.63;;;2.42;;
70780;SDS011;59514;48.810;2.134;2023-06-10T00:35:46;2.70;;;2.50;;
70780;SDS011;59514;48.810;2.134;2023-06-10T00:38:12;2.88;;;2.67;;
70780;SDS011;59514;48.810;2.134;2023-06-10T00:40:39;2.88;;;2.67;;
70780;SDS011;59514;48.810;2.134;2023-06-10T00:43:08;2.90;;;2.70;;
70780;SDS011;59514;48.810;2.134;2023-06-10T00:45:34;2.83;;;2.63;;
70780;SDS011;59514;48.810;2.134;2023-06-10T00:48:00;2.58;;;2.40;;
70780;SDS011;59514;48.810;2.134;2023-06-10T00:50:26;2.80;;;2.60;;
70780;SDS011;59514;48.810;2.134;2023-06-10T00:52:53;2.80;;;2.60;;
70780;SDS011;59514;48.810;2.134;2023-06-10T00:55:19;3.15;;;2.90;;
70780;SDS011;59514;48.810;2.134;2023-06-10T00:57:46;2.70;;;2.50;;
70780;SDS011;59514;48.810;2.134;2023-06-10T01:00:13;2.70;;;2.50;;
70780;SDS011;59514;48.810;2.134;2023-06-10T01:02:40;2.65;;;2.45;;
70780;SDS011;59514;48.810;2.134;2023-06-10T01:05:06;2.90;;;2.70;;
70780;SDS011;59514;48.810;2.134;2023-06-10T01:10:15;2.60;;;2.40;;
70780;SDS011;59514;48.810;2.134;2023-06-10T01:12:52;2.88;;;2.67;;
70780;SDS011;59514;48.810;2.134;2023-06-10T01:15:24;3.03;;;2.83;;
70780;SDS011;59514;48.810;2.134;2023-06-10T01:18:09;2.95;;;2.75;;
70780;SDS011;59514;48.810;2.134;2023-06-10T01:20:40;2.70;;;2.50;;
70780;SDS011;59514;48.810;2.134;2023-06-10T01:23:08;2.58;;;2.40;;
70780;SDS011;59514;48.810;2.134;2023-06-10T01:25:36;2.85;;;2.65;;
70780;SDS011;59514;48.810;2.134;2023-06-10T01:28:10;2.50;;;2.30;;
70780;SDS011;59514;48.810;2.134;2023-06-10T01:33:33;2.38;;;2.28;;
70780;SDS011;59514;48.810;2.134;2023-06-10T01:36:01;2.55;;;2.38;;
70780;SDS011;59514;48.810;2.134;2023-06-10T01:38:29;2.90;;;2.70;;
70780;SDS011;59514;48.810;2.134;2023-06-10T01:40:57;3.00;;;2.80;;
70780;SDS011;59514;48.810;2.134;2023-06-10T01:43:23;3.00;;;2.80;;
70780;SDS011;59514;48.810;2.134;2023-06-10T01:45:49;2.78;;;2.58;;
70780;SDS011;59514;48.810;2.134;2023-06-10T01:48:14;3.30;;;3.10;;
70780;SDS011;59514;48.810;2.134;2023-06-10T01:50:39;2.90;;;2.70;;
70780;SDS011;59514;48.810;2.134;2023-06-10T01:53:05;2.90;;;2.60;;
70780;SDS011;59514;48.810;2.134;2023-06-10T01:55:30;3.30;;;3.00;;
70780;SDS011;59514;48.810;2.134;2023-06-10T01:57:56;2.80;;;2.60;;
70780;SDS011;59514;48.810;2.134;2023-06-10T02:00:21;2.88;;;2.67;;
70780;SDS011;59514;48.810;2.134;2023-06-10T02:02:46;2.88;;;2.67;;
70780;SDS011;59514;48.810;2.134;2023-06-10T02:05:12;2.63;;;2.42;;
70780;SDS011;59514;48.810;2.134;2023-06-10T02:07:37;2.83;;;2.63;;
70780;SDS011;59514;48.810;2.134;2023-06-10T02:10:03;2.53;;;2.33;;
70780;SDS011;59514;48.810;2.134;2023-06-10T02:12:30;3.33;;;3.05;;
70780;SDS011;59514;48.810;2.134;2023-06-10T02:14:55;3.20;;;2.97;;
70780;SDS011;59514;48.810;2.134;2023-06-10T02:17:20;2.90;;;2.70;;
70780;SDS011;59514;48.810;2.134;2023-06-10T02:19:45;2.90;;;2.70;;
70780;SDS011;59514;48.810;2.134;2023-06-10T02:22:17;3.00;;;2.80;;
70780;SDS011;59514;48.810;2.134;2023-06-10T02:24:44;2.95;;;2.75;;
70780;SDS011;59514;48.810;2.134;2023-06-10T02:27:10;2.63;;;2.47;;
70780;SDS011;59514;48.810;2.134;2023-06-10T02:29:35;2.90;;;2.70;;
70780;SDS011;59514;48.810;2.134;2023-06-10T02:32:01;2.75;;;2.55;;
70780;SDS011;59514;48.810;2.134;2023-06-10T02:34:27;2.97;;;2.78;;
70780;SDS011;59514;48.810;2.134;2023-06-10T02:36:53;2.95;;;2.75;;
70780;SDS011;59514;48.810;2.134;2023-06-10T02:39:18;2.90;;;2.70;;
70780;SDS011;59514;48.810;2.134;2023-06-10T02:41:44;2.80;;;2.60;;
70780;SDS011;59514;48.810;2.134;2023-06-10T02:44:09;3.13;;;2.90;;
70780;SDS011;59514;48.810;2.134;2023-06-10T02:46:35;2.88;;;2.67;;
70780;SDS011;59514;48.810;2.134;2023-06-10T02:49:00;3.13;;;2.83;;
70780;SDS011;59514;48.810;2.134;2023-06-10T02:51:26;3.13;;;2.92;;
70780;SDS011;59514;48.810;2.134;2023-06-10T02:53:52;3.22;;;3.00;;
70780;SDS011;59514;48.810;2.134;2023-06-10T02:56:17;3.13;;;2.92;;
70780;SDS011;59514;48.810;2.134;2023-06-10T02:58:44;2.95;;;2.75;;
70780;SDS011;59514;48.810;2.134;2023-06-10T03:01:09;3.15;;;2.90;;
70780;SDS011;59514;48.810;2.134;2023-06-10T03:03:35;2.95;;;2.65;;
70780;SDS011;59514;48.810;2.134;2023-06-10T03:06:01;3.30;;;3.00;;
70780;SDS011;59514;48.810;2.134;2023-06-10T03:08:27;3.42;;;3.13;;
70780;SDS011;59514;48.810;2.134;2023-06-10T03:10:53;2.88;;;2.63;;
70780;SDS011;59514;48.810;2.134;2023-06-10T03:13:18;2.90;;;2.70;;
70780;SDS011;59514;48.810;2.134;2023-06-10T03:15:44;2.78;;;2.60;;
70780;SDS011;59514;48.810;2.134;2023-06-10T03:18:11;3.40;;;3.10;;
70780;SDS011;59514;48.810;2.134;2023-06-10T03:20:36;3.13;;;2.85;;
70780;SDS011;59514;48.810;2.134;2023-06-10T03:23:02;3.15;;;2.95;;
70780;SDS011;59514;48.810;2.134;2023-06-10T03:25:30;3.10;;;2.90;;
70780;SDS011;59514;48.810;2.134;2023-06-10T03:27:55;3.20;;;3.00;;
70780;SDS011;59514;48.810;2.134;2023-06-10T03:30:21;3.00;;;2.80;;
70780;SDS011;59514;48.810;2.134;2023-06-10T03:32:46;3.42;;;3.22;;
70780;SDS011;59514;48.810;2.134;2023-06-10T03:35:11;3.20;;;3.00;;
70780;SDS011;59514;48.810;2.134;2023-06-10T03:37:37;3.08;;;2.83;;
70780;SDS011;59514;48.810;2.134;2023-06-10T03:40:02;3.17;;;2.97;;
70780;SDS011;59514;48.810;2.134;2023-06-10T03:42:28;3.42;;;3.13;;
70780;SDS011;59514;48.810;2.134;2023-06-10T03:44:54;3.60;;;3.40;;
70780;SDS011;59514;48.810;2.134;2023-06-10T03:47:20;2.65;;;2.53;;
70780;SDS011;59514;48.810;2.134;2023-06-10T03:49:46;3.45;;;3.20;;
70780;SDS011;59514;48.810;2.134;2023-06-10T03:52:11;3.25;;;2.95;;
70780;SDS011;59514;48.810;2.134;2023-06-10T03:54:36;2.75;;;2.55;;
70780;SDS011;59514;48.810;2.134;2023-06-10T03:57:02;3.70;;;3.17;;
70780;SDS011;59514;48.810;2.134;2023-06-10T03:59:28;3.15;;;2.95;;
70780;SDS011;59514;48.810;2.134;2023-06-10T04:01:53;3.65;;;3.35;;
70780;SDS011;59514;48.810;2.134;2023-06-10T04:04:19;3.42;;;3.17;;
70780;SDS011;59514;48.810;2.134;2023-06-10T04:06:45;3.55;;;3.35;;
70780;SDS011;59514;48.810;2.134;2023-06-10T04:09:10;3.30;;;3.10;;
70780;SDS011;59514;48.810;2.134;2023-06-10T04:11:36;3.50;;;3.20;;
70780;SDS011;59514;48.810;2.134;2023-06-10T04:14:02;3.80;;;2.70;;
70780;SDS011;59514;48.810;2.134;2023-06-10T04:16:27;2.90;;;2.70;;
70780;SDS011;59514;48.810;2.134;2023-06-10T04:18:53;3.58;;;3.30;;
70780;SDS011;59514;48.810;2.134;2023-06-10T04:21:18;2.97;;;2.78;;
70780;SDS011;59514;48.810;2.134;2023-06-10T04:23:44;3.42;;;3.13;;
70780;SDS011;59514;48.810;2.134;2023-06-10T04:26:09;2.90;;;2.70;;
70780;SDS011;59514;48.810;2.134;2023-06-10T04:28:37;3.40;;;3.13;;
70780;SDS011;59514;48.810;2.134;2023-06-10T04:31:02;5.88;;;3.25;;
70780;SDS011;59514;48.810;2.134;2023-06-10T04:33:29;3.25;;;3.03;;
70780;SDS011;59514;48.810;2.134;2023-06-10T04:35:55;3.28;;;3.00;;
70780;SDS011;59514;48.810;2.134;2023-06-10T04:38:20;3.15;;;2.95;;
70780;SDS011;59514;48.810;2.134;2023-06-10T04:40:46;3.38;;;3.17;;
70780;SDS011;59514;48.810;2.134;2023-06-10T04:43:11;3.25;;;3.05;;
70780;SDS011;59514;48.810;2.134;2023-06-10T04:45:37;3.30;;;3.10;;
70780;SDS011;59514;48.810;2.134;2023-06-10T04:48:03;3.20;;;3.00;;
70780;SDS011;59514;48.810;2.134;2023-06-10T04:50:28;2.90;;;2.70;;
70780;SDS011;59514;48.810;2.134;2023-06-10T04:52:54;3.00;;;2.80;;
70780;SDS011;59514;48.810;2.134;2023-06-10T04:55:22;3.40;;;2.90;;
70780;SDS011;59514;48.810;2.134;2023-06-10T04:57:48;3.35;;;3.10;;
70780;SDS011;59514;48.810;2.134;2023-06-10T05:00:13;3.17;;;2.97;;
70780;SDS011;59514;48.810;2.134;2023-06-10T05:02:39;3.25;;;2.97;;
70780;SDS011;59514;48.810;2.134;2023-06-10T05:05:04;3.00;;;2.80;;
70780;SDS011;59514;48.810;2.134;2023-06-10T05:07:30;3.25;;;2.95;;
70780;SDS011;59514;48.810;2.134;2023-06-10T05:09:56;3.10;;;2.85;;
70780;SDS011;59514;48.810;2.134;2023-06-10T05:12:21;3.05;;;2.85;;
70780;SDS011;59514;48.810;2.134;2023-06-10T05:14:47;3.03;;;2.83;;
70780;SDS011;59514;48.810;2.134;2023-06-10T05:17:12;3.03;;;2.83;;
70780;SDS011;59514;48.810;2.134;2023-06-10T05:19:38;2.80;;;2.60;;
70780;SDS011;59514;48.810;2.134;2023-06-10T05:22:03;3.45;;;3.15;;
70780;SDS011;59514;48.810;2.134;2023-06-10T05:24:29;2.97;;;2.78;;
70780;SDS011;59514;48.810;2.134;2023-06-10T05:26:54;2.88;;;2.67;;
70780;SDS011;59514;48.810;2.134;2023-06-10T05:29:19;2.80;;;2.60;;
70780;SDS011;59514;48.810;2.134;2023-06-10T05:31:45;3.17;;;2.88;;
70780;SDS011;59514;48.810;2.134;2023-06-10T05:34:10;3.10;;;2.90;;
70780;SDS011;59514;48.810;2.134;2023-06-10T05:36:36;2.80;;;2.60;;
70780;SDS011;59514;48.810;2.134;2023-06-10T05:39:01;3.30;;;3.10;;
70780;SDS011;59514;48.810;2.134;2023-06-10T05:41:27;2.90;;;2.70;;
70780;SDS011;59514;48.810;2.134;2023-06-10T05:43:53;2.63;;;2.42;;
70780;SDS011;59514;48.810;2.134;2023-06-10T05:46:19;3.20;;;2.90;;
70780;SDS011;59514;48.810;2.134;2023-06-10T05:48:45;4.40;;;2.92;;
70780;SDS011;59514;48.810;2.134;2023-06-10T05:51:10;2.97;;;2.78;;
70780;SDS011;59514;48.810;2.134;2023-06-10T05:53:35;2.97;;;2.78;;
70780;SDS011;59514;48.810;2.134;2023-06-10T05:56:01;2.75;;;2.55;;
70780;SDS011;59514;48.810;2.134;2023-06-10T05:58:26;3.00;;;2.80;;
70780;SDS011;59514;48.810;2.134;2023-06-10T06:00:51;3.45;;;3.03;;
70780;SDS011;59514;48.810;2.134;2023-06-10T06:03:17;2.65;;;2.45;;
70780;SDS011;59514;48.810;2.134;2023-06-10T06:05:42;3.63;;;3.00;;
70780;SDS011;59514;48.810;2.134;2023-06-10T06:08:08;3.15;;;2.72;;
70780;SDS011;59514;48.810;2.134;2023-06-10T06:10:35;2.85;;;2.65;;
70780;SDS011;59514;48.810;2.134;2023-06-10T06:13:00;3.17;;;2.88;;
70780;SDS011;59514;48.810;2.134;2023-06-10T06:15:26;3.17;;;2.83;;
70780;SDS011;59514;48.810;2.134;2023-06-10T06:17:52;3.03;;;2.70;;
70780;SDS011;59514;48.810;2.134;2023-06-10T06:20:18;2.67;;;2.47;;
70780;SDS011;59514;48.810;2.134;2023-06-10T06:22:44;6.22;;;5.72;;
70780;SDS011;59514;48.810;2.134;2023-06-10T06:25:10;3.60;;;3.33;;
70780;SDS011;59514;48.810;2.134;2023-06-10T06:27:35;3.10;;;2.90;;
70780;SDS011;59514;48.810;2.134;2023-06-10T06:30:00;3.00;;;2.75;;
70780;SDS011;59514;48.810;2.134;2023-06-10T06:32:25;3.30;;;3.00;;
70780;SDS011;59514;48.810;2.134;2023-06-10T06:34:52;3.00;;;2.78;;
70780;SDS011;59514;48.810;2.134;2023-06-10T06:37:21;3.08;;;2.60;;
70780;SDS011;59514;48.810;2.134;2023-06-10T06:39:47;3.17;;;2.85;;
70780;SDS011;59514;48.810;2.134;2023-06-10T06:42:13;2.72;;;2.53;;
70780;SDS011;59514;48.810;2.134;2023-06-10T06:44:38;2.70;;;2.50;;
70780;SDS011;59514;48.810;2.134;2023-06-10T06:47:04;2.72;;;2.53;;
70780;SDS011;59514;48.810;2.134;2023-06-10T06:49:29;3.80;;;2.80;;
70780;SDS011;59514;48.810;2.134;2023-06-10T06:51:55;2.90;;;2.70;;
70780;SDS011;59514;48.810;2.134;2023-06-10T06:54:20;3.00;;;2.70;;
70780;SDS011;59514;48.810;2.134;2023-06-10T06:56:45;2.87;;;2.67;;
70780;SDS011;59514;48.810;2.134;2023-06-10T06:59:11;3.15;;;2.63;;
70780;SDS011;59514;48.810;2.134;2023-06-10T07:01:38;3.00;;;2.80;;
70780;SDS011;59514;48.810;2.134;2023-06-10T07:04:04;3.70;;;2.70;;
70780;SDS011;59514;48.810;2.134;2023-06-10T07:06:29;2.80;;;2.60;;
70780;SDS011;59514;48.810;2.134;2023-06-10T07:08:55;3.20;;;2.95;;
70780;SDS011;59514;48.810;2.134;2023-06-10T07:11:20;3.08;;;2.50;;
70780;SDS011;59514;48.810;2.134;2023-06-10T07:13:46;3.15;;;2.95;;
70780;SDS011;59514;48.810;2.134;2023-06-10T07:16:12;3.90;;;2.88;;
70780;SDS011;59514;48.810;2.134;2023-06-10T07:18:37;3.08;;;2.80;;
70780;SDS011;59514;48.810;2.134;2023-06-10T07:21:03;2.95;;;2.65;;
70780;SDS011;59514;48.810;2.134;2023-06-10T07:23:28;3.10;;;2.90;;
70780;SDS011;59514;48.810;2.134;2023-06-10T07:25:53;3.00;;;2.70;;
70780;SDS011;59514;48.810;2.134;2023-06-10T07:28:18;3.10;;;2.90;;
70780;SDS011;59514;48.810;2.134;2023-06-10T07:30:44;2.63;;;2.42;;
70780;SDS011;59514;48.810;2.134;2023-06-10T07:33:09;3.33;;;3.03;;
70780;SDS011;59514;48.810;2.134;2023-06-10T07:35:35;3.22;;;2.97;;
70780;SDS011;59514;48.810;2.134;2023-06-10T07:38:01;4.22;;;3.17;;
70780;SDS011;59514;48.810;2.134;2023-06-10T07:40:26;3.40;;;3.13;;
70780;SDS011;59514;48.810;2.134;2023-06-10T07:42:52;3.25;;;2.85;;
70780;SDS011;59514;48.810;2.134;2023-06-10T07:45:18;2.70;;;2.50;;
70780;SDS011;59514;48.810;2.134;2023-06-10T07:47:43;3.00;;;2.65;;
70780;SDS011;59514;48.810;2.134;2023-06-10T07:50:08;2.40;;;2.20;;
70780;SDS011;59514;48.810;2.134;2023-06-10T07:52:34;3.00;;;2.80;;
70780;SDS011;59514;48.810;2.134;2023-06-10T07:54:59;3.47;;;2.55;;
70780;SDS011;59514;48.810;2.134;2023-06-10T07:57:25;3.05;;;2.67;;
70780;SDS011;59514;48.810;2.134;2023-06-10T07:59:50;4.07;;;3.03;;
70780;SDS011;59514;48.810;2.134;2023-06-10T08:02:16;2.78;;;2.58;;
70780;SDS011;59514;48.810;2.134;2023-06-10T08:04:41;3.08;;;2.78;;
70780;SDS011;59514;48.810;2.134;2023-06-10T08:07:06;3.05;;;2.85;;
70780;SDS011;59514;48.810;2.134;2023-06-10T08:09:32;3.55;;;2.75;;
70780;SDS011;59514;48.810;2.134;2023-06-10T08:11:57;3.53;;;2.40;;
70780;SDS011;59514;48.810;2.134;2023-06-10T08:14:22;2.65;;;2.45;;
70780;SDS011;59514;48.810;2.134;2023-06-10T08:16:48;2.63;;;2.35;;
70780;SDS011;59514;48.810;2.134;2023-06-10T08:19:13;6.53;;;5.18;;
70780;SDS011;59514;48.810;2.134;2023-06-10T08:21:38;3.33;;;3.10;;
70780;SDS011;59514;48.810;2.134;2023-06-10T08:24:05;4.00;;;2.70;;
70780;SDS011;59514;48.810;2.134;2023-06-10T08:26:34;2.97;;;2.70;;
70780;SDS011;59514;48.810;2.134;2023-06-10T08:29:00;3.03;;;2.72;;
70780;SDS011;59514;48.810;2.134;2023-06-10T08:31:25;3.15;;;2.53;;
70780;SDS011;59514;48.810;2.134;2023-06-10T08:33:50;3.88;;;2.63;;
70780;SDS011;59514;48.810;2.134;2023-06-10T08:36:16;2.90;;;2.67;;
70780;SDS011;59514;48.810;2.134;2023-06-10T08:38:41;2.53;;;2.33;;
70780;SDS011;59514;48.810;2.134;2023-06-10T08:41:06;2.60;;;2.40;;
70780;SDS011;59514;48.810;2.134;2023-06-10T08:44:21;5.45;;;2.45;;
70780;SDS011;59514;48.810;2.134;2023-06-10T08:46:27;2.35;;;2.15;;
70780;SDS011;59514;48.810;2.134;2023-06-10T08:48:56;4.90;;;2.63;;
70780;SDS011;59514;48.810;2.134;2023-06-10T08:51:27;3.88;;;2.75;;
70780;SDS011;59514;48.810;2.134;2023-06-10T08:53:58;2.42;;;2.25;;
70780;SDS011;59514;48.810;2.134;2023-06-10T08:56:29;2.70;;;2.50;;
70780;SDS011;59514;48.810;2.134;2023-06-10T08:58:56;3.58;;;3.25;;
70780;SDS011;59514;48.810;2.134;2023-06-10T09:01:23;3.78;;;3.35;;
70780;SDS011;59514;48.810;2.134;2023-06-10T09:03:50;4.47;;;4.07;;
70780;SDS011;59514;48.810;2.134;2023-06-10T09:06:16;3.10;;;2.90;;
70780;SDS011;59514;48.810;2.134;2023-06-10T09:08:43;2.50;;;2.30;;
70780;SDS011;59514;48.810;2.134;2023-06-10T09:11:08;3.30;;;3.10;;
70780;SDS011;59514;48.810;2.134;2023-06-10T09:13:34;2.50;;;2.38;;
70780;SDS011;59514;48.810;2.134;2023-06-10T09:15:59;2.65;;;2.53;;
70780;SDS011;59514;48.810;2.134;2023-06-10T09:18:27;2.33;;;2.13;;
70780;SDS011;59514;48.810;2.134;2023-06-10T09:20:53;2.83;;;2.63;;
70780;SDS011;59514;48.810;2.134;2023-06-10T09:23:18;2.40;;;2.20;;
70780;SDS011;59514;48.810;2.134;2023-06-10T09:25:44;2.58;;;2.38;;
70780;SDS011;59514;48.810;2.134;2023-06-10T09:28:13;2.35;;;2.15;;
70780;SDS011;59514;48.810;2.134;2023-06-10T09:30:39;4.28;;;2.40;;
70780;SDS011;59514;48.810;2.134;2023-06-10T09:33:12;2.53;;;2.33;;
70780;SDS011;59514;48.810;2.134;2023-06-10T09:35:46;2.10;;;2.00;;
70780;SDS011;59514;48.810;2.134;2023-06-10T09:38:13;2.35;;;2.25;;
70780;SDS011;59514;48.810;2.134;2023-06-10T09:40:53;2.38;;;2.17;;
70780;SDS011;59514;48.810;2.134;2023-06-10T09:43:19;2.50;;;2.30;;
70780;SDS011;59514;48.810;2.134;2023-06-10T09:45:51;3.20;;;2.47;;
70780;SDS011;59514;48.810;2.134;2023-06-10T09:48:21;2.20;;;1.80;;
70780;SDS011;59514;48.810;2.134;2023-06-10T09:50:48;2.20;;;2.10;;
70780;SDS011;59514;48.810;2.134;2023-06-10T09:53:13;2.10;;;2.00;;
70780;SDS011;59514;48.810;2.134;2023-06-10T09:55:39;2.20;;;2.10;;
70780;SDS011;59514;48.810;2.134;2023-06-10T09:58:06;2.30;;;2.10;;
70780;SDS011;59514;48.810;2.134;2023-06-10T10:00:34;2.63;;;2.42;;
70780;SDS011;59514;48.810;2.134;2023-06-10T10:03:00;2.80;;;2.40;;
70780;SDS011;59514;48.810;2.134;2023-06-10T10:05:26;2.53;;;2.33;;
70780;SDS011;59514;48.810;2.134;2023-06-10T10:07:57;2.58;;;2.35;;
70780;SDS011;59514;48.810;2.134;2023-06-10T10:10:22;2.20;;;2.10;;
70780;SDS011;59514;48.810;2.134;2023-06-10T10:12:48;1.88;;;1.77;;
70780;SDS011;59514;48.810;2.134;2023-06-10T10:15:18;2.95;;;1.98;;
70780;SDS011;59514;48.810;2.134;2023-06-10T10:17:52;2.05;;;1.85;;
70780;SDS011;59514;48.810;2.134;2023-06-10T10:20:22;1.80;;;1.70;;
70780;SDS011;59514;48.810;2.134;2023-06-10T10:28:17;1.88;;;1.73;;
70780;SDS011;59514;48.810;2.134;2023-06-10T10:30:47;1.88;;;1.70;;
70780;SDS011;59514;48.810;2.134;2023-06-10T10:33:19;1.90;;;1.80;;
70780;SDS011;59514;48.810;2.134;2023-06-10T10:35:48;2.08;;;1.73;;
70780;SDS011;59514;48.810;2.134;2023-06-10T10:38:14;3.08;;;1.80;;
70780;SDS011;59514;48.810;2.134;2023-06-10T10:40:40;2.50;;;1.90;;
70780;SDS011;59514;48.810;2.134;2023-06-10T10:43:08;2.17;;;1.90;;
70780;SDS011;59514;48.810;2.134;2023-06-10T10:45:34;2.35;;;2.15;;
70780;SDS011;59514;48.810;2.134;2023-06-10T10:48:04;1.80;;;1.70;;
70780;SDS011;59514;48.810;2.134;2023-06-10T10:50:36;1.90;;;1.70;;
70780;SDS011;59514;48.810;2.134;2023-06-10T10:53:03;2.10;;;2.00;;
70780;SDS011;59514;48.810;2.134;2023-06-10T10:55:30;2.67;;;2.20;;
70780;SDS011;59514;48.810;2.134;2023-06-10T11:00:31;3.38;;;1.83;;
70780;SDS011;59514;48.810;2.134;2023-06-10T11:02:59;2.00;;;1.90;;
70780;SDS011;59514;48.810;2.134;2023-06-10T11:08:03;2.33;;;2.13;;
70780;SDS011;59514;48.810;2.134;2023-06-10T11:10:33;2.92;;;2.20;;
70780;SDS011;59514;48.810;2.134;2023-06-10T11:12:59;2.38;;;2.13;;
70780;SDS011;59514;48.810;2.134;2023-06-10T11:15:26;2.05;;;1.92;;
70780;SDS011;59514;48.810;2.134;2023-06-10T11:18:10;2.03;;;1.92;;
70780;SDS011;59514;48.810;2.134;2023-06-10T11:28:38;2.45;;;2.25;;
70780;SDS011;59514;48.810;2.134;2023-06-10T11:31:04;2.05;;;1.95;;
70780;SDS011;59514;48.810;2.134;2023-06-10T11:33:30;1.98;;;1.88;;
70780;SDS011;59514;48.810;2.134;2023-06-10T11:35:56;2.20;;;2.10;;
70780;SDS011;59514;48.810;2.134;2023-06-10T11:38:23;2.25;;;2.05;;
70780;SDS011;59514;48.810;2.134;2023-06-10T11:40:48;1.95;;;1.85;;
70780;SDS011;59514;48.810;2.134;2023-06-10T11:43:17;2.47;;;2.28;;
70780;SDS011;59514;48.810;2.134;2023-06-10T11:45:43;2.40;;;2.20;;
70780;SDS011;59514;48.810;2.134;2023-06-10T11:48:09;2.22;;;2.08;;
70780;SDS011;59514;48.810;2.134;2023-06-10T11:50:35;2.20;;;2.10;;
70780;SDS011;59514;48.810;2.134;2023-06-10T11:53:02;2.22;;;2.03;;
70780;SDS011;59514;48.810;2.134;2023-06-10T11:55:41;2.78;;;2.10;;
70780;SDS011;59514;48.810;2.134;2023-06-10T11:58:18;2.08;;;1.98;;
70780;SDS011;59514;48.810;2.134;2023-06-10T12:00:52;2.30;;;2.20;;
70780;SDS011;59514;48.810;2.134;2023-06-10T12:03:19;3.35;;;2.47;;
70780;SDS011;59514;48.810;2.134;2023-06-10T12:06:04;2.83;;;2.63;;
70780;SDS011;59514;48.810;2.134;2023-06-10T12:08:31;2.33;;;2.20;;
70780;SDS011;59514;48.810;2.134;2023-06-10T12:10:57;2.67;;;2.47;;
70780;SDS011;59514;48.810;2.134;2023-06-10T12:13:27;2.38;;;2.22;;
70780;SDS011;59514;48.810;2.134;2023-06-10T12:15:52;2.47;;;2.28;;
70780;SDS011;59514;48.810;2.134;2023-06-10T12:20:44;2.10;;;2.00;;
70780;SDS011;59514;48.810;2.134;2023-06-10T12:23:10;2.53;;;2.33;;
70780;SDS011;59514;48.810;2.134;2023-06-10T12:25:36;2.42;;;2.22;;
70780;SDS011;59514;48.810;2.134;2023-06-10T12:28:03;2.78;;;2.58;;
70780;SDS011;59514;48.810;2.134;2023-06-10T12:30:29;2.25;;;2.08;;
70780;SDS011;59514;48.810;2.134;2023-06-10T12:32:57;2.58;;;2.17;;
70780;SDS011;59514;48.810;2.134;2023-06-10T12:35:23;2.55;;;2.33;;
70780;SDS011;59514;48.810;2.134;2023-06-10T12:38:09;2.40;;;2.20;;
70780;SDS011;59514;48.810;2.134;2023-06-10T12:40:37;2.60;;;2.50;;
70780;SDS011;59514;48.810;2.134;2023-06-10T12:43:05;2.15;;;1.95;;
70780;SDS011;59514;48.810;2.134;2023-06-10T12:45:35;2.30;;;2.10;;
70780;SDS011;59514;48.810;2.134;2023-06-10T12:48:09;2.47;;;2.27;;
70780;SDS011;59514;48.810;2.134;2023-06-10T12:50:35;1.90;;;1.80;;
70780;SDS011;59514;48.810;2.134;2023-06-10T12:53:02;2.42;;;2.22;;
70780;SDS011;59514;48.810;2.134;2023-06-10T12:55:28;2.17;;;2.08;;
70780;SDS011;59514;48.810;2.134;2023-06-10T12:57:53;2.20;;;2.10;;
70780;SDS011;59514;48.810;2.134;2023-06-10T13:00:21;2.30;;;2.20;;
70780;SDS011;59514;48.810;2.134;2023-06-10T13:02:48;2.30;;;2.20;;
70780;SDS011;59514;48.810;2.134;2023-06-10T13:05:13;2.58;;;2.38;;
70780;SDS011;59514;48.810;2.134;2023-06-10T13:07:39;2.30;;;2.20;;
70780;SDS011;59514;48.810;2.134;2023-06-10T13:10:04;2.40;;;2.30;;
70780;SDS011;59514;48.810;2.134;2023-06-10T13:12:30;2.35;;;2.20;;
70780;SDS011;59514;48.810;2.134;2023-06-10T13:14:55;2.30;;;2.20;;
70780;SDS011;59514;48.810;2.134;2023-06-10T13:17:21;2.40;;;2.22;;
70780;SDS011;59514;48.810;2.134;2023-06-10T13:19:46;2.30;;;2.20;;
70780;SDS011;59514;48.810;2.134;2023-06-10T13:22:13;2.53;;;2.20;;
70780;SDS011;59514;48.810;2.134;2023-06-10T13:24:39;2.33;;;2.13;;
70780;SDS011;59514;48.810;2.134;2023-06-10T13:27:05;2.70;;;2.50;;
70780;SDS011;59514;48.810;2.134;2023-06-10T13:29:31;2.60;;;2.40;;
70780;SDS011;59514;48.810;2.134;2023-06-10T13:31:57;2.05;;;1.95;;
70780;SDS011;59514;48.810;2.134;2023-06-10T13:34:22;2.55;;;2.35;;
70780;SDS011;59514;48.810;2.134;2023-06-10T13:36:47;2.50;;;2.30;;
70780;SDS011;59514;48.810;2.134;2023-06-10T13:39:13;2.10;;;2.00;;
70780;SDS011;59514;48.810;2.134;2023-06-10T13:41:39;2.35;;;2.20;;
70780;SDS011;59514;48.810;2.134;2023-06-10T13:44:06;2.30;;;2.20;;
70780;SDS011;59514;48.810;2.134;2023-06-10T13:46:31;2.30;;;2.10;;
70780;SDS011;59514;48.810;2.134;2023-06-10T13:48:57;2.40;;;2.30;;
70780;SDS011;59514;48.810;2.134;2023-06-10T13:51:22;2.25;;;2.15;;
70780;SDS011;59514;48.810;2.134;2023-06-10T13:53:47;2.53;;;2.38;;
70780;SDS011;59514;48.810;2.134;2023-06-10T13:56:13;2.28;;;2.17;;
70780;SDS011;59514;48.810;2.134;2023-06-10T13:58:39;2.22;;;2.13;;
70780;SDS011;59514;48.810;2.134;2023-06-10T14:01:06;2.35;;;2.20;;
70780;SDS011;59514;48.810;2.134;2023-06-10T14:03:31;2.10;;;2.00;;
70780;SDS011;59514;48.810;2.134;2023-06-10T14:05:57;2.35;;;2.25;;
70780;SDS011;59514;48.810;2.134;2023-06-10T14:08:22;2.20;;;2.10;;
70780;SDS011;59514;48.810;2.134;2023-06-10T14:10:48;2.30;;;2.13;;
70780;SDS011;59514;48.810;2.134;2023-06-10T14:13:15;2.33;;;2.22;;
70780;SDS011;59514;48.810;2.134;2023-06-10T14:15:41;2.60;;;2.40;;
70780;SDS011;59514;48.810;2.134;2023-06-10T14:18:06;2.45;;;2.25;;
70780;SDS011;59514;48.810;2.134;2023-06-10T14:20:31;2.13;;;2.03;;
70780;SDS011;59514;48.810;2.134;2023-06-10T14:22:57;2.00;;;1.90;;
70780;SDS011;59514;48.810;2.134;2023-06-10T14:25:23;2.33;;;2.22;;
70780;SDS011;59514;48.810;2.134;2023-06-10T14:27:49;2.53;;;2.33;;
70780;SDS011;59514;48.810;2.134;2023-06-10T14:30:14;2.03;;;1.92;;
70780;SDS011;59514;48.810;2.134;2023-06-10T14:32:40;3.33;;;2.13;;
70780;SDS011;59514;48.810;2.134;2023-06-10T14:35:06;2.47;;;2.28;;
70780;SDS011;59514;48.810;2.134;2023-06-10T14:37:31;2.35;;;2.15;;
70780;SDS011;59514;48.810;2.134;2023-06-10T14:39:56;2.17;;;2.07;;
70780;SDS011;59514;48.810;2.134;2023-06-10T14:42:22;3.08;;;2.20;;
70780;SDS011;59514;48.810;2.134;2023-06-10T14:44:47;2.13;;;2.03;;
70780;SDS011;59514;48.810;2.134;2023-06-10T14:47:13;2.22;;;2.03;;
70780;SDS011;59514;48.810;2.134;2023-06-10T14:49:38;2.50;;;2.40;;
70780;SDS011;59514;48.810;2.134;2023-06-10T14:52:03;2.67;;;2.53;;
70780;SDS011;59514;48.810;2.134;2023-06-10T14:54:29;2.33;;;2.20;;
70780;SDS011;59514;48.810;2.134;2023-06-10T14:56:55;2.22;;;2.03;;
70780;SDS011;59514;48.810;2.134;2023-06-10T14:59:20;2.47;;;2.37;;
70780;SDS011;59514;48.810;2.134;2023-06-10T15:01:45;2.50;;;2.30;;
70780;SDS011;59514;48.810;2.134;2023-06-10T15:04:11;2.30;;;2.20;;
70780;SDS011;59514;48.810;2.134;2023-06-10T15:06:36;2.40;;;2.30;;
70780;SDS011;59514;48.810;2.134;2023-06-10T15:09:01;3.27;;;2.60;;
70780;SDS011;59514;48.810;2.134;2023-06-10T15:11:27;2.20;;;2.10;;